Terminal Aerodrome Forecast
Issued by NWS Austin/San Antonio, TX

Home | Current Version | Previous Version | Text Only | Print | Product List | Glossary On
Versions: 1 2 3 4 5 6 7 8 9 10 11 12 13 14 15 16 17 18 19 20 21
000
FTUS44 KEWX 191100
TAFDRT
TAF
KDRT 191132Z 1912/2012 13008KT P6SM FEW030 OVC040
     FM191500 14015KT P6SM OVC040 PROB30 1923/2002 5SM -TSRA BR
      BKN030CB
     FM200200 11012KT P6SM OVC050
     FM201000 12010KT P6SM OVC013=

USA.gov is the U.S. government's official web portal to all federal, state and local government web resources and services.